createdAt,value
2023-02-02T00:00:30.352Z,26.60
2023-02-02T00:04:21.237Z,26.90
2023-02-02T00:07:48.342Z,24.00
2023-02-02T00:11:16.078Z,17.50
2023-02-02T00:14:43.215Z,28.20
2023-02-02T00:18:10.515Z,32.80
2023-02-02T00:21:38.885Z,32.10
2023-02-02T00:25:06.899Z,25.70
2023-02-02T00:28:34.139Z,28.90
2023-02-02T00:32:01.191Z,22.10
2023-02-02T00:35:29.040Z,16.50
2023-02-02T00:38:56.082Z,20.60
2023-02-02T00:42:23.878Z,20.30
2023-02-02T00:45:51.470Z,22.20
2023-02-02T00:49:18.722Z,22.90
2023-02-02T00:52:46.073Z,21.00
2023-02-02T00:56:13.313Z,25.80
2023-02-02T00:59:40.554Z,22.20
2023-02-02T01:03:08.078Z,17.60
2023-02-02T01:06:35.648Z,13.30
2023-02-02T01:10:02.780Z,19.40
2023-02-02T01:13:30.302Z,14.40
2023-02-02T01:16:57.419Z,20.60
2023-02-02T01:20:26.745Z,17.80
2023-02-02T01:23:54.010Z,19.00
2023-02-02T01:27:21.215Z,16.10
2023-02-02T01:30:48.947Z,20.20
2023-02-02T01:34:15.968Z,22.50
2023-02-02T01:37:43.058Z,19.00
2023-02-02T01:41:13.355Z,25.50
2023-02-02T01:45:06.800Z,17.40
2023-02-02T01:48:37.189Z,26.20
2023-02-02T01:55:32.477Z,21.50
2023-02-02T01:59:01.225Z,12.50
2023-02-02T02:02:31.162Z,16.10
2023-02-02T02:06:02.446Z,18.60
2023-02-02T02:09:30.117Z,21.70
2023-02-02T02:12:58.901Z,10.80
2023-02-02T02:16:37.276Z,13.70
2023-02-02T02:21:16.484Z,20.50
2023-02-02T02:25:30.957Z,18.50
2023-02-02T02:29:15.009Z,17.50
2023-02-02T02:32:47.602Z,20.20
2023-02-02T02:36:22.012Z,15.30
2023-02-02T02:39:57.094Z,15.40
2023-02-02T02:43:32.583Z,13.60
2023-02-02T02:47:00.398Z,8.40
2023-02-02T02:50:28.195Z,10.30
2023-02-02T02:53:56.733Z,10.50
2023-02-02T02:57:42.848Z,12.20
2023-02-02T03:01:19.042Z,14.80
2023-02-02T03:04:52.817Z,16.10
2023-02-02T03:08:28.636Z,9.90
2023-02-02T03:11:56.549Z,14.20
2023-02-02T03:15:23.988Z,11.60
2023-02-02T03:18:51.892Z,16.00
2023-02-02T03:22:18.878Z,10.10
2023-02-02T03:25:46.434Z,17.80
2023-02-02T03:29:13.765Z,19.30
2023-02-02T03:32:41.618Z,10.70
2023-02-02T03:36:10.155Z,9.90
2023-02-02T03:39:37.327Z,12.90
2023-02-02T03:43:04.567Z,11.70
2023-02-02T03:46:31.912Z,14.60
2023-02-02T03:49:59.176Z,18.30
2023-02-02T03:53:26.904Z,12.10
2023-02-02T03:56:57.052Z,10.90
2023-02-02T04:00:24.811Z,12.00
2023-02-02T04:03:54.190Z,7.60
2023-02-02T04:07:21.319Z,11.90
2023-02-02T04:10:48.602Z,11.90
2023-02-02T04:14:15.728Z,8.40
2023-02-02T04:17:43.125Z,23.30
2023-02-02T04:21:11.205Z,12.50
2023-02-02T04:24:38.254Z,14.50
2023-02-02T04:28:06.023Z,11.70
2023-02-02T04:31:33.346Z,13.70
2023-02-02T04:35:00.657Z,10.20
2023-02-02T04:38:27.791Z,7.40
2023-02-02T04:41:54.953Z,7.00
2023-02-02T04:45:22.658Z,6.00
2023-02-02T04:48:50.755Z,11.60
2023-02-02T04:52:17.888Z,3.60
2023-02-02T04:55:44.876Z,2.60
2023-02-02T04:59:12.198Z,3.60
2023-02-02T05:02:40.747Z,6.80
2023-02-02T05:06:08.822Z,3.80
2023-02-02T05:09:36.010Z,3.30
2023-02-02T05:13:03.054Z,3.50
2023-02-02T05:16:30.329Z,1.60
2023-02-02T05:19:57.441Z,3.40
2023-02-02T05:23:24.629Z,5.90
2023-02-02T05:26:52.920Z,5.60
2023-02-02T05:30:20.747Z,4.30
2023-02-02T05:33:48.058Z,4.20
2023-02-02T05:37:15.254Z,1.90
2023-02-02T05:40:42.438Z,2.80
2023-02-02T05:44:19.657Z,3.20
2023-02-02T05:47:46.764Z,4.20
2023-02-02T05:51:21.132Z,2.20
2023-02-02T05:54:48.383Z,2.80
2023-02-02T05:58:15.558Z,3.60
2023-02-02T06:01:42.726Z,1.80
2023-02-02T06:05:11.029Z,1.90
2023-02-02T06:08:38.249Z,2.90
2023-02-02T06:12:06.024Z,3.70
2023-02-02T06:15:34.880Z,5.40
2023-02-02T06:19:02.027Z,3.40
2023-02-02T06:22:30.412Z,3.70
2023-02-02T06:25:57.735Z,3.20
2023-02-02T06:29:25.404Z,5.50
2023-02-02T06:32:52.657Z,6.00
2023-02-02T06:36:19.913Z,2.60
2023-02-02T06:39:47.613Z,6.70
2023-02-02T06:43:16.448Z,6.80
2023-02-02T06:46:46.963Z,5.30
2023-02-02T06:50:15.034Z,5.60
2023-02-02T06:53:44.574Z,4.10
2023-02-02T06:57:11.627Z,4.90
2023-02-02T07:00:38.801Z,4.00
2023-02-02T07:04:06.263Z,3.20
2023-02-02T07:07:36.175Z,6.30
2023-02-02T07:11:11.078Z,4.90
2023-02-02T07:14:42.907Z,4.30
2023-02-02T07:18:10.251Z,2.40
2023-02-02T07:21:37.453Z,4.10
2023-02-02T07:25:04.662Z,2.20
2023-02-02T07:28:32.099Z,7.80
2023-02-02T07:31:59.222Z,3.70
2023-02-02T07:35:26.777Z,3.10
2023-02-02T07:38:55.637Z,5.40
2023-02-02T07:42:22.687Z,4.90
2023-02-02T07:45:50.318Z,3.70
2023-02-02T07:49:20.007Z,2.80
2023-02-02T07:56:15.392Z,7.70
2023-02-02T07:59:42.403Z,5.20
2023-02-02T08:03:11.705Z,6.50
2023-02-02T08:06:41.227Z,4.60
2023-02-02T08:10:13.068Z,3.00
2023-02-02T08:13:40.826Z,3.00
2023-02-02T08:17:08.130Z,4.40
2023-02-02T08:20:35.761Z,4.30
2023-02-02T08:24:04.728Z,7.20
2023-02-02T08:27:31.932Z,5.60
2023-02-02T08:31:04.738Z,4.10
2023-02-02T08:34:35.162Z,7.60
2023-02-02T08:38:05.528Z,3.80
2023-02-02T08:41:33.028Z,4.80
2023-02-02T08:46:12.725Z,5.60
2023-02-02T08:48:47.751Z,5.10
2023-02-02T08:52:14.981Z,8.00
2023-02-02T08:55:42.142Z,4.70
2023-02-02T08:59:09.407Z,4.70
2023-02-02T09:02:36.905Z,5.20
2023-02-02T09:06:09.742Z,4.70
2023-02-02T09:09:36.845Z,4.90
2023-02-02T09:13:04.114Z,3.10
2023-02-02T09:16:31.475Z,4.90
2023-02-02T09:19:58.569Z,3.20
2023-02-02T09:23:26.034Z,4.20
2023-02-02T09:26:53.461Z,4.10
2023-02-02T09:30:21.496Z,4.40
2023-02-02T09:33:49.269Z,7.00
2023-02-02T09:37:16.676Z,4.80
2023-02-02T09:40:44.631Z,5.80
2023-02-02T09:44:22.199Z,9.80
2023-02-02T09:48:12.441Z,3.80
2023-02-02T09:51:45.449Z,8.30
2023-02-02T09:55:22.813Z,5.00
2023-02-02T09:58:54.727Z,5.70
2023-02-02T10:02:25.890Z,5.00
2023-02-02T10:05:59.133Z,5.60
2023-02-02T10:09:39.468Z,7.00
2023-02-02T10:13:14.013Z,5.30
2023-02-02T10:16:42.701Z,4.50
2023-02-02T10:20:35.118Z,5.20
2023-02-02T10:24:04.686Z,4.00
2023-02-02T10:31:04.784Z,7.00
2023-02-02T10:34:39.495Z,4.80
2023-02-02T10:38:14.234Z,6.00
2023-02-02T10:41:54.282Z,3.40
2023-02-02T10:45:22.427Z,4.00
2023-02-02T10:48:52.947Z,6.60
2023-02-02T10:52:23.849Z,5.10
2023-02-02T10:55:55.936Z,4.40
2023-02-02T10:59:28.578Z,4.00
2023-02-02T11:02:56.400Z,4.70
2023-02-02T11:06:41.879Z,2.90
2023-02-02T11:10:10.258Z,5.60
2023-02-02T11:13:43.413Z,5.10
2023-02-02T11:17:22.517Z,2.30
2023-02-02T11:20:49.705Z,2.70
2023-02-02T11:24:27.897Z,5.70
2023-02-02T11:27:55.495Z,3.50
2023-02-02T11:31:39.385Z,5.00
2023-02-02T11:35:24.965Z,6.80
2023-02-02T11:39:12.331Z,5.30
2023-02-02T11:42:45.524Z,7.10
2023-02-02T11:46:21.488Z,6.30
2023-02-02T11:49:51.760Z,3.30
2023-02-02T11:53:28.501Z,5.20
2023-02-02T11:56:58.856Z,5.00
2023-02-02T12:00:28.770Z,4.50
2023-02-02T12:03:57.711Z,5.30
2023-02-02T12:07:29.615Z,6.60
2023-02-02T12:11:02.232Z,9.80
2023-02-02T12:14:39.996Z,7.50
2023-02-02T12:18:18.400Z,2.40
2023-02-02T12:21:55.035Z,9.20
2023-02-02T12:25:39.273Z,2.90
2023-02-02T12:29:25.976Z,3.50
2023-02-02T12:33:07.652Z,2.80
2023-02-02T12:36:50.978Z,4.30
2023-02-02T12:40:31.265Z,4.50
2023-02-02T12:44:08.514Z,4.50
2023-02-02T12:47:43.342Z,4.50
2023-02-02T12:51:24.922Z,9.80
2023-02-02T12:55:05.781Z,1.80
2023-02-02T12:58:41.437Z,4.30
2023-02-02T13:02:20.401Z,2.30
2023-02-02T13:06:03.824Z,4.40
2023-02-02T13:09:36.983Z,3.80
2023-02-02T13:13:09.619Z,6.10
2023-02-02T13:16:41.178Z,4.20
2023-02-02T13:20:17.771Z,11.30
2023-02-02T13:23:50.482Z,5.40
2023-02-02T13:27:21.522Z,36.80
2023-02-02T13:30:52.081Z,30.00
2023-02-02T13:34:22.979Z,26.20
2023-02-02T13:37:55.580Z,31.10
2023-02-02T13:41:24.386Z,32.90
2023-02-02T13:44:56.646Z,113.30
2023-02-02T13:48:33.044Z,298.50
2023-02-02T13:52:13.721Z,461.70
2023-02-02T13:56:14.361Z,105.00
2023-02-02T14:00:01.934Z,111.30
2023-02-02T14:03:40.569Z,80.30
2023-02-02T14:07:10.909Z,67.10
2023-02-02T14:10:41.183Z,87.30
2023-02-02T14:14:33.025Z,46.70
2023-02-02T14:18:00.393Z,25.90
2023-02-02T14:22:02.463Z,17.50
2023-02-02T14:26:05.438Z,11.40
2023-02-02T14:29:58.738Z,10.40
2023-02-02T14:33:47.684Z,10.30
2023-02-02T14:37:37.445Z,9.30
2023-02-02T14:41:14.049Z,6.70
2023-02-02T14:45:27.423Z,4.40
2023-02-02T14:52:57.355Z,7.00
2023-02-02T14:56:46.931Z,10.10
2023-02-02T15:00:26.395Z,8.90
2023-02-02T15:03:57.440Z,13.00
2023-02-02T15:07:55.115Z,5.70
2023-02-02T15:11:32.236Z,11.50
2023-02-02T15:15:10.645Z,8.90
2023-02-02T15:18:45.810Z,6.20
2023-02-02T15:22:24.540Z,4.60
2023-02-02T15:25:56.211Z,17.40
2023-02-02T15:29:33.549Z,9.10
2023-02-02T15:33:05.558Z,8.00
2023-02-02T15:36:36.771Z,6.30
2023-02-02T15:40:08.918Z,12.30
2023-02-02T15:43:37.751Z,15.10
2023-02-02T15:47:08.805Z,5.70
2023-02-02T15:50:36.744Z,8.80
2023-02-02T15:54:03.928Z,11.60
2023-02-02T15:57:34.504Z,6.60
2023-02-02T16:01:06.276Z,6.70
2023-02-02T16:04:38.577Z,6.60
2023-02-02T16:08:16.516Z,6.20
2023-02-02T16:11:47.801Z,7.40
2023-02-02T16:15:20.505Z,12.70
2023-02-02T16:18:47.691Z,7.50
2023-02-02T16:22:20.880Z,6.30
2023-02-02T16:25:52.339Z,34.70
2023-02-02T16:29:19.974Z,46.00
2023-02-02T16:32:47.529Z,24.30
2023-02-02T16:36:25.960Z,21.80
2023-02-02T16:39:54.249Z,9.60
2023-02-02T16:43:28.604Z,23.70
2023-02-02T16:46:56.387Z,20.00
2023-02-02T16:50:33.917Z,8.50
2023-02-02T16:54:12.322Z,10.00
2023-02-02T16:57:39.759Z,8.40
2023-02-02T17:01:16.632Z,13.60
2023-02-02T17:04:49.752Z,11.20
2023-02-02T17:08:26.529Z,10.10
2023-02-02T17:12:02.670Z,9.40
2023-02-02T17:15:37.331Z,9.80
2023-02-02T17:19:04.812Z,6.40
2023-02-02T17:22:43.295Z,6.00
2023-02-02T17:26:11.467Z,17.00
2023-02-02T17:29:38.663Z,18.20
2023-02-02T17:33:06.887Z,12.30
2023-02-02T17:36:34.044Z,21.70
2023-02-02T17:40:01.322Z,41.70
2023-02-02T17:43:28.962Z,25.20
2023-02-02T17:46:56.563Z,16.50
2023-02-02T17:50:24.734Z,16.10
2023-02-02T17:53:55.504Z,19.30
2023-02-02T17:57:22.716Z,14.30
2023-02-02T18:00:54.325Z,11.20
2023-02-02T18:04:26.381Z,15.20
2023-02-02T18:07:55.015Z,24.90
2023-02-02T18:11:25.488Z,24.00
2023-02-02T18:14:52.775Z,30.00
2023-02-02T18:18:20.280Z,20.60
2023-02-02T18:21:47.516Z,16.10
2023-02-02T18:25:14.794Z,19.50
2023-02-02T18:28:42.211Z,12.50
2023-02-02T18:32:09.636Z,9.20
2023-02-02T18:35:37.286Z,11.30
2023-02-02T18:39:04.717Z,11.00
2023-02-02T18:42:33.226Z,19.40
2023-02-02T18:46:06.529Z,20.20
2023-02-02T18:49:33.832Z,16.40
2023-02-02T18:53:01.033Z,8.80
2023-02-02T18:56:29.687Z,8.20
2023-02-02T18:59:57.011Z,11.40
2023-02-02T19:03:24.184Z,10.40
2023-02-02T19:07:09.264Z,8.90
2023-02-02T19:10:36.495Z,8.70
2023-02-02T19:14:07.196Z,5.60
2023-02-02T19:17:34.381Z,8.10
2023-02-02T19:21:01.863Z,12.10
2023-02-02T19:24:36.257Z,11.30
2023-02-02T19:28:10.421Z,10.90
2023-02-02T19:31:37.812Z,9.30
2023-02-02T19:35:08.645Z,9.00
2023-02-02T19:38:35.986Z,9.30
2023-02-02T19:42:09.657Z,13.10
2023-02-02T19:45:39.692Z,13.50
2023-02-02T19:49:14.704Z,15.10
2023-02-02T19:52:42.552Z,13.40
2023-02-02T19:56:25.774Z,11.20
2023-02-02T19:59:54.208Z,14.90
2023-02-02T20:03:24.553Z,9.20
2023-02-02T20:06:58.985Z,9.60
2023-02-02T20:10:30.264Z,20.60
2023-02-02T20:13:57.566Z,50.00
2023-02-02T20:17:33.021Z,52.30
2023-02-02T20:21:00.756Z,49.50
2023-02-02T20:24:29.580Z,58.80
2023-02-02T20:27:59.099Z,46.30
2023-02-02T20:31:30.471Z,37.70
2023-02-02T20:35:00.385Z,38.30
2023-02-02T20:38:30.056Z,68.00
2023-02-02T20:41:58.769Z,91.60
2023-02-02T20:45:26.440Z,92.00
2023-02-02T20:48:53.740Z,70.80
2023-02-02T20:52:23.873Z,62.20
2023-02-02T20:55:56.944Z,58.20
2023-02-02T20:59:24.738Z,45.30
2023-02-02T21:02:52.283Z,41.70
2023-02-02T21:06:21.251Z,52.50
2023-02-02T21:09:50.011Z,65.30
2023-02-02T21:13:17.185Z,49.00
2023-02-02T21:16:44.554Z,54.00
2023-02-02T21:20:15.901Z,52.10
2023-02-02T21:23:47.037Z,43.10
2023-02-02T21:27:14.242Z,37.60
2023-02-02T21:30:42.000Z,36.90
2023-02-02T21:34:09.548Z,34.60
2023-02-02T21:37:37.828Z,35.00
2023-02-02T21:41:10.511Z,28.90
2023-02-02T21:44:39.230Z,36.00
2023-02-02T21:48:22.618Z,41.20
2023-02-02T21:51:55.862Z,65.90
2023-02-02T21:55:35.938Z,86.20
2023-02-02T21:59:11.879Z,112.80
2023-02-02T22:02:45.282Z,152.90
2023-02-02T22:06:25.388Z,154.50
2023-02-02T22:09:54.813Z,148.70
2023-02-02T22:16:50.975Z,117.40
2023-02-02T22:20:34.772Z,80.60
2023-02-02T22:24:02.996Z,111.10
2023-02-02T22:27:42.655Z,114.60
2023-02-02T22:31:11.069Z,108.90
2023-02-02T22:34:38.405Z,93.20
2023-02-02T22:38:06.479Z,97.00
2023-02-02T22:41:33.597Z,72.00
2023-02-02T22:45:00.789Z,57.60
2023-02-02T22:48:28.090Z,58.40
2023-02-02T22:51:55.298Z,59.00
2023-02-02T22:55:23.021Z,56.60
2023-02-02T22:58:50.343Z,50.10
2023-02-02T23:02:17.609Z,52.50
2023-02-02T23:05:45.283Z,55.00
2023-02-02T23:09:12.440Z,64.70
2023-02-02T23:12:39.940Z,59.90
2023-02-02T23:16:10.821Z,65.50
2023-02-02T23:19:38.029Z,57.20
2023-02-02T23:23:05.445Z,67.60
2023-02-02T23:26:32.563Z,78.10
2023-02-02T23:29:59.903Z,71.00
2023-02-02T23:33:27.153Z,65.80
2023-02-02T23:36:54.539Z,71.30
2023-02-02T23:40:22.040Z,68.20
2023-02-02T23:43:50.413Z,52.30
2023-02-02T23:47:17.820Z,41.90
2023-02-02T23:50:46.548Z,38.70
2023-02-02T23:54:15.222Z,33.70
2023-02-02T23:57:42.410Z,26.60
